createdAt,value
2016-05-19T00:00:03.960Z,61.63
2016-05-19T00:01:03.963Z,61.82
2016-05-19T00:02:03.997Z,62.11
2016-05-19T00:03:04.015Z,61.35
2016-05-19T00:04:04.018Z,61.44
2016-05-19T00:05:04.051Z,62.59
2016-05-19T00:06:04.054Z,63.07
2016-05-19T00:07:04.072Z,62.49
2016-05-19T00:08:04.606Z,62.68
2016-05-19T00:09:04.125Z,62.87
2016-05-19T00:10:04.128Z,63.64
2016-05-19T00:11:04.162Z,63.07
2016-05-19T00:12:04.180Z,62.87
2016-05-19T00:13:04.198Z,62.78
2016-05-19T00:14:04.217Z,62.87
2016-05-19T00:15:04.236Z,63.07
2016-05-19T00:16:04.269Z,63.07
2016-05-19T00:17:04.272Z,62.84
2016-05-19T00:18:04.291Z,63.42
2016-05-19T00:19:04.308Z,63.51
2016-05-19T00:20:04.171Z,62.87
2016-05-19T00:21:04.344Z,63.35
2016-05-19T00:22:04.379Z,63.35
2016-05-19T00:23:04.397Z,63.64
2016-05-19T00:24:04.399Z,63.26
2016-05-19T00:25:04.419Z,63.42
2016-05-19T00:26:04.452Z,63.99
2016-05-19T00:27:04.454Z,64.28
2016-05-19T00:28:04.473Z,64.56
2016-05-19T00:29:04.491Z,64.56
2016-05-19T00:30:04.401Z,63.8
2016-05-19T00:31:04.403Z,63.8
2016-05-19T00:32:04.546Z,64.37
2016-05-19T00:33:04.595Z,64.47
2016-05-19T00:34:04.426Z,64.75
2016-05-19T00:35:04.617Z,64.56
2016-05-19T00:36:04.479Z,64.65
2016-05-19T00:37:04.654Z,64.85
2016-05-19T00:38:04.672Z,65.33
2016-05-19T00:39:04.690Z,64.37
2016-05-19T00:40:04.709Z,64.47
2016-05-19T00:41:04.727Z,64.28
2016-05-19T00:42:04.745Z,63.89
2016-05-19T00:43:04.748Z,63.51
2016-05-19T00:44:04.766Z,63.6
2016-05-19T00:45:04.784Z,62.75
2016-05-19T00:46:04.819Z,62.84
2016-05-19T00:47:04.836Z,63.03
2016-05-19T00:48:04.855Z,62.75
2016-05-19T00:49:04.858Z,63.89
2016-05-19T00:50:04.735Z,63.6
2016-05-19T00:51:04.754Z,63.6
2016-05-19T00:52:04.928Z,63.32
2016-05-19T00:53:05.540Z,62.94
2016-05-19T00:54:04.965Z,63.7
2016-05-19T00:55:04.968Z,63.6
2016-05-19T00:56:05.002Z,63.8
2016-05-19T00:57:05.021Z,63.8
2016-05-19T00:58:05.023Z,63.8
2016-05-19T00:59:05.056Z,64.18
2016-05-19T01:00:05.075Z,64.34
2016-05-19T01:01:05.109Z,63.96
2016-05-19T01:02:05.111Z,64.43
2016-05-19T01:03:05.129Z,64.53
2016-05-19T01:04:05.164Z,64.34
2016-05-19T01:05:05.167Z,64.53
2016-05-19T01:06:05.029Z,64.72
2016-05-19T01:07:05.187Z,64.72
2016-05-19T01:08:05.221Z,64.43
2016-05-19T01:09:05.240Z,64.81
2016-05-19T01:10:05.258Z,64.53
2016-05-19T01:11:05.276Z,64.25
2016-05-19T01:12:05.310Z,64.72
2016-05-19T01:13:05.313Z,64.72
2016-05-19T01:14:05.331Z,64.62
2016-05-19T01:15:05.194Z,64.72
2016-05-19T01:16:05.352Z,64.81
2016-05-19T01:17:05.245Z,64.62
2016-05-19T01:18:05.405Z,64.53
2016-05-19T01:19:05.423Z,64.62
2016-05-19T01:20:05.441Z,64.72
2016-05-19T01:21:05.459Z,64.62
2016-05-19T01:22:05.478Z,64.53
2016-05-19T01:23:05.341Z,64.81
2016-05-19T01:24:05.358Z,64.34
2016-05-19T01:25:05.532Z,64.25
2016-05-19T01:26:05.551Z,64.43
2016-05-19T01:27:05.569Z,64.25
2016-05-19T01:28:05.588Z,63.96
2016-05-19T01:29:05.606Z,63.96
2016-05-19T01:30:05.640Z,64.34
2016-05-19T01:31:05.643Z,64.05
2016-05-19T01:32:05.660Z,63.39
2016-05-19T01:33:05.679Z,64.09
2016-05-19T01:34:05.698Z,63.86
2016-05-19T01:35:05.715Z,63.57
2016-05-19T01:36:05.734Z,63.57
2016-05-19T01:37:05.753Z,63.48
2016-05-19T01:38:05.739Z,63.67
2016-05-19T01:39:05.790Z,63.51
2016-05-19T01:40:05.791Z,63.32
2016-05-19T01:41:05.825Z,63.7
2016-05-19T01:42:05.844Z,63.7
2016-05-19T01:43:05.847Z,63.6
2016-05-19T01:44:05.865Z,63.6
2016-05-19T01:45:05.900Z,63.8
2016-05-19T01:46:05.902Z,63.8
2016-05-19T01:47:05.936Z,63.7
2016-05-19T01:48:05.953Z,63.51
2016-05-19T01:49:05.972Z,63.42
2016-05-19T01:50:05.991Z,63.6
2016-05-19T01:51:06.009Z,63.6
2016-05-19T01:52:06.027Z,62.94
2016-05-19T01:53:06.061Z,63.32
2016-05-19T01:54:06.064Z,62.84
2016-05-19T01:55:06.066Z,63.51
2016-05-19T01:56:06.100Z,63.8
2016-05-19T01:57:06.119Z,63.6
2016-05-19T01:58:06.121Z,63.8
2016-05-19T01:59:06.155Z,63.6
2016-05-19T02:00:06.158Z,63.89
2016-05-19T02:01:06.207Z,63.51
2016-05-19T02:02:06.070Z,63.89
2016-05-19T02:03:06.243Z,64.18
2016-05-19T02:04:06.231Z,64.25
2016-05-19T02:05:06.266Z,63.99
2016-05-19T02:06:06.284Z,64.15
2016-05-19T02:07:06.301Z,64.09
2016-05-19T02:08:06.164Z,63.86
2016-05-19T02:09:06.339Z,64.43
2016-05-19T02:10:06.342Z,64.15
2016-05-19T02:11:06.376Z,64.05
2016-05-19T02:12:06.237Z,64.25
2016-05-19T02:13:06.412Z,63.96
2016-05-19T02:14:06.274Z,63.76
2016-05-19T02:15:06.448Z,63.86
2016-05-19T02:16:06.467Z,64.05
2016-05-19T02:17:06.485Z,64.34
2016-05-19T02:18:06.503Z,63.96
2016-05-19T02:19:06.366Z,64.34
2016-05-19T02:20:06.539Z,64.34
2016-05-19T02:21:06.558Z,64.72
2016-05-19T02:22:06.561Z,64.72
2016-05-19T02:23:06.438Z,64.53
2016-05-19T02:24:06.597Z,64.72
2016-05-19T02:25:06.639Z,64.72
2016-05-19T02:26:06.642Z,64.72
2016-05-19T02:27:06.676Z,64.72
2016-05-19T02:28:06.694Z,64.25
2016-05-19T02:29:06.713Z,64.62
2016-05-19T02:30:06.731Z,64.72
2016-05-19T02:31:06.733Z,64.72
2016-05-19T02:32:06.752Z,64.53
2016-05-19T02:33:06.770Z,64.72
2016-05-19T02:34:06.788Z,65.1
2016-05-19T02:35:06.807Z,65.39
2016-05-19T02:36:06.857Z,65.1
2016-05-19T02:37:06.843Z,65.2
2016-05-19T02:38:06.768Z,64.43
2016-05-19T02:39:06.943Z,64.72
2016-05-19T02:40:06.757Z,64.53
2016-05-19T02:41:06.945Z,64.72
2016-05-19T02:42:07.022Z,64.43
2016-05-19T02:43:07.084Z,63.76
2016-05-19T02:44:07.115Z,63.96
2016-05-19T02:45:07.067Z,64.25
2016-05-19T02:46:07.235Z,63.96
2016-05-19T02:47:07.113Z,64.15
2016-05-19T02:48:07.286Z,63.67
2016-05-19T02:49:07.352Z,63.48
2016-05-19T02:50:07.386Z,63.48
2016-05-19T02:51:07.413Z,63.57
2016-05-19T02:52:07.437Z,63.57
2016-05-19T02:53:07.931Z,63.39
2016-05-19T02:54:07.344Z,63.57
2016-05-19T02:55:07.493Z,62.91
2016-05-19T02:56:07.515Z,62.71
2016-05-19T02:57:07.395Z,62.71
2016-05-19T02:58:07.555Z,62.81
2016-05-19T02:59:07.576Z,62.71
2016-05-19T03:00:07.612Z,62.84
2016-05-19T03:01:07.632Z,62.71
2016-05-19T03:02:07.635Z,62.81
2016-05-19T03:03:07.653Z,62.91
2016-05-19T03:04:07.689Z,62.84
2016-05-19T03:05:07.707Z,62.94
2016-05-19T03:06:07.727Z,62.75
2016-05-19T03:07:07.746Z,62.94
2016-05-19T03:08:07.748Z,62.65
2016-05-19T03:09:07.767Z,62.94
2016-05-19T03:10:07.785Z,62.75
2016-05-19T03:11:07.803Z,62.84
2016-05-19T03:12:07.822Z,62.94
2016-05-19T03:13:07.841Z,62.75
2016-05-19T03:14:07.844Z,62.84
2016-05-19T03:15:07.894Z,62.84
2016-05-19T03:16:07.896Z,62.75
2016-05-19T03:17:07.914Z,62.75
2016-05-19T03:18:07.948Z,62.75
2016-05-19T03:19:07.966Z,62.84
2016-05-19T03:20:07.969Z,63.03
2016-05-19T03:21:07.988Z,63.6
2016-05-19T03:22:07.865Z,62.84
2016-05-19T03:23:08.258Z,63.57
2016-05-19T03:24:07.885Z,64.09
2016-05-19T03:25:08.060Z,64.75
2016-05-19T03:26:08.079Z,65.23
2016-05-19T03:27:08.096Z,65.14
2016-05-19T03:28:07.959Z,65.67
2016-05-19T03:29:07.977Z,66.44
2016-05-19T03:30:08.152Z,66.15
2016-05-19T03:31:08.014Z,66.63
2016-05-19T03:32:08.204Z,66.72
2016-05-19T03:33:08.223Z,66.53
2016-05-19T03:34:08.226Z,66.35
2016-05-19T03:35:08.104Z,67.01
2016-05-19T03:36:08.262Z,66.63
2016-05-19T03:37:08.343Z,67.11
2016-05-19T03:38:08.345Z,67.01
2016-05-19T03:39:08.175Z,67.11
2016-05-19T03:40:08.336Z,67.01
2016-05-19T03:41:08.400Z,67.3
2016-05-19T03:42:08.419Z,66.92
2016-05-19T03:43:08.436Z,66.72
2016-05-19T03:44:08.408Z,66.92
2016-05-19T03:45:08.474Z,66.92
2016-05-19T03:46:08.476Z,67.3
2016-05-19T03:47:08.463Z,67.11
2016-05-19T03:48:08.325Z,67.58
2016-05-19T03:49:08.375Z,67.21
2016-05-19T03:50:08.347Z,66.92
2016-05-19T03:51:08.552Z,66.92
2016-05-19T03:52:08.399Z,66.82
2016-05-19T03:53:08.433Z,66.72
2016-05-19T03:54:08.608Z,66.92
2016-05-19T03:55:08.454Z,66.82
2016-05-19T03:56:08.488Z,66.72
2016-05-19T03:57:08.490Z,67.11
2016-05-19T03:58:08.680Z,67.01
2016-05-19T03:59:08.683Z,66.92
2016-05-19T04:00:08.717Z,66.92
2016-05-19T04:01:08.720Z,66.72
2016-05-19T04:02:08.737Z,66.82
2016-05-19T04:03:08.600Z,67.21
2016-05-19T04:04:08.759Z,67.21
2016-05-19T04:05:08.793Z,67.21
2016-05-19T04:06:08.795Z,67.3
2016-05-19T04:07:08.814Z,67.11
2016-05-19T04:08:08.832Z,67.3
2016-05-19T04:09:08.867Z,67.3
2016-05-19T04:10:08.885Z,67.4
2016-05-19T04:11:08.903Z,67.3
2016-05-19T04:12:08.906Z,67.21
2016-05-19T04:13:08.940Z,67.3
2016-05-19T04:14:08.942Z,67.3
2016-05-19T04:15:08.960Z,67.01
2016-05-19T04:16:08.838Z,67.21
2016-05-19T04:17:09.013Z,66.72
2016-05-19T04:18:09.016Z,66.92
2016-05-19T04:19:09.033Z,66.72
2016-05-19T04:20:08.927Z,67.21
2016-05-19T04:21:09.085Z,67.11
2016-05-19T04:22:09.104Z,66.92
2016-05-19T04:23:09.122Z,67.11
2016-05-19T04:24:09.125Z,67.01
2016-05-19T04:25:09.160Z,67.21
2016-05-19T04:26:09.177Z,66.25
2016-05-19T04:27:09.180Z,66.25
2016-05-19T04:28:09.215Z,65.96
2016-05-19T04:29:09.218Z,66.44
2016-05-19T04:30:09.251Z,66.44
2016-05-19T04:31:09.254Z,66.44
2016-05-19T04:32:09.272Z,66.15
2016-05-19T04:33:09.290Z,65.58
2016-05-19T04:34:09.324Z,65.77
2016-05-19T04:35:09.342Z,66
2016-05-19T04:36:09.361Z,65.9
2016-05-19T04:37:09.379Z,65.71
2016-05-19T04:38:09.225Z,65.71
2016-05-19T04:39:09.401Z,66.19
2016-05-19T04:40:09.418Z,65.8
2016-05-19T04:41:09.452Z,65.8
2016-05-19T04:42:09.456Z,66
2016-05-19T04:43:09.473Z,65.52
2016-05-19T04:44:09.508Z,65.8
2016-05-19T04:45:09.510Z,65.42
2016-05-19T04:46:09.544Z,65.61
2016-05-19T04:47:09.561Z,65.61
2016-05-19T04:48:09.565Z,66
2016-05-19T04:49:09.583Z,65.71
2016-05-19T04:50:09.602Z,65.8
2016-05-19T04:51:09.480Z,65.9
2016-05-19T04:52:09.638Z,65.9
2016-05-19T04:53:09.516Z,65.71
2016-05-19T04:54:09.674Z,65.9
2016-05-19T04:55:09.694Z,65.9
2016-05-19T04:56:09.711Z,65.9
2016-05-19T04:57:09.729Z,65.9
2016-05-19T04:58:09.749Z,66.19
2016-05-19T04:59:09.766Z,66.09
2016-05-19T05:00:09.801Z,66.19
2016-05-19T05:01:09.804Z,65.61
2016-05-19T05:02:09.837Z,65.61
2016-05-19T05:03:09.855Z,65.42
2016-05-19T05:04:09.857Z,65.33
2016-05-19T05:05:09.892Z,65.23
2016-05-19T05:06:09.895Z,65.14
2016-05-19T05:07:09.913Z,65.14
2016-05-19T05:08:09.790Z,64.37
2016-05-19T05:09:09.809Z,64.65
2016-05-19T05:10:09.968Z,64.78
2016-05-19T05:11:10.001Z,64.59
2016-05-19T05:12:10.020Z,64.65
2016-05-19T05:13:10.039Z,64.88
2016-05-19T05:14:10.057Z,64.4
2016-05-19T05:15:10.059Z,64.5
2016-05-19T05:16:10.078Z,63.93
2016-05-19T05:17:10.097Z,64.12
2016-05-19T05:18:10.114Z,63.83
2016-05-19T05:19:10.148Z,64.12
2016-05-19T05:20:10.151Z,64.31
2016-05-19T05:21:10.169Z,63.83
2016-05-19T05:22:10.188Z,64.02
2016-05-19T05:23:10.080Z,63.64
2016-05-19T05:24:10.271Z,63.64
2016-05-19T05:25:10.259Z,63.54
2016-05-19T05:26:10.277Z,62.97
2016-05-19T05:27:10.279Z,63.35
2016-05-19T05:28:10.313Z,63.16
2016-05-19T05:29:10.363Z,63.16
2016-05-19T05:30:10.382Z,62.87
2016-05-19T05:31:10.368Z,63.07
2016-05-19T05:32:10.402Z,63.64
2016-05-19T05:33:10.405Z,63.73
2016-05-19T05:34:10.423Z,63.16
2016-05-19T05:35:10.441Z,63.26
2016-05-19T05:36:10.460Z,62.52
2016-05-19T05:37:10.478Z,63
2016-05-19T05:38:10.559Z,63.1
2016-05-19T05:39:10.546Z,62.87
2016-05-19T05:40:10.549Z,63.19
2016-05-19T05:41:10.598Z,62.62
2016-05-19T05:42:10.632Z,62.52
2016-05-19T05:43:10.651Z,62.43
2016-05-19T05:44:10.670Z,62.04
2016-05-19T05:45:10.672Z,61.76
2016-05-19T05:46:10.675Z,61.85
2016-05-19T05:47:10.708Z,62.04
2016-05-19T05:48:10.539Z,62.24
2016-05-19T05:49:10.728Z,62.14
2016-05-19T05:50:10.717Z,62.14
2016-05-19T05:51:10.750Z,62.14
2016-05-19T05:52:10.769Z,61.85
2016-05-19T05:53:11.600Z,61.66
2016-05-19T05:54:10.789Z,61.38
2016-05-19T05:55:10.824Z,61.57
2016-05-19T05:56:10.842Z,62.04
2016-05-19T05:57:10.875Z,61.41
2016-05-19T05:58:10.894Z,62.04
2016-05-19T05:59:10.896Z,61.47
2016-05-19T06:00:10.774Z,61.85
2016-05-19T06:01:10.933Z,61.88
2016-05-19T06:02:10.968Z,61.31
2016-05-19T06:03:10.971Z,61.6
2016-05-19T06:04:10.988Z,61.31
2016-05-19T06:05:11.007Z,61.22
2016-05-19T06:06:11.025Z,61.41
2016-05-19T06:07:11.043Z,61.79
2016-05-19T06:08:10.905Z,61.41
2016-05-19T06:09:11.079Z,61.12
2016-05-19T06:10:11.098Z,60.93
2016-05-19T06:11:11.132Z,61.02
2016-05-19T06:12:10.994Z,61.12
2016-05-19T06:13:11.168Z,60.83
2016-05-19T06:14:11.187Z,60.83
2016-05-19T06:15:11.206Z,60.74
2016-05-19T06:16:11.240Z,61.12
2016-05-19T06:17:11.101Z,60.64
2016-05-19T06:18:11.261Z,60.93
2016-05-19T06:19:11.278Z,60.93
2016-05-19T06:20:11.156Z,61.15
2016-05-19T06:21:11.314Z,60.67
2016-05-19T06:22:11.350Z,60.58
2016-05-19T06:23:11.211Z,60.1
2016-05-19T06:24:11.386Z,60.48
2016-05-19T06:25:11.389Z,60.1
2016-05-19T06:26:11.423Z,59.72
2016-05-19T06:27:11.441Z,60
2016-05-19T06:28:11.443Z,59.81
2016-05-19T06:29:11.461Z,59.72
2016-05-19T06:30:11.496Z,59.14
2016-05-19T06:31:11.513Z,59.14
2016-05-19T06:32:11.533Z,59.14
2016-05-19T06:33:11.566Z,59.23
2016-05-19T06:34:11.569Z,57.83
2016-05-19T06:35:11.588Z,57.83
2016-05-19T06:36:11.621Z,57.42
2016-05-19T06:37:11.640Z,57.83
2016-05-19T06:38:11.501Z,57.35
2016-05-19T06:39:11.676Z,56.68
2016-05-19T06:40:11.695Z,56.3
2016-05-19T06:41:11.713Z,56.77
2016-05-19T06:42:11.762Z,56.39
2016-05-19T06:43:11.749Z,57.09
2016-05-19T06:44:11.768Z,56.71
2016-05-19T06:45:11.802Z,56.13
2016-05-19T06:46:11.804Z,56.13
2016-05-19T06:47:11.823Z,56.61
2016-05-19T06:48:11.857Z,56.81
2016-05-19T06:49:11.875Z,56.9
2016-05-19T06:50:11.908Z,57.28
2016-05-19T06:51:11.755Z,56.9
2016-05-19T06:52:11.945Z,56.32
2016-05-19T06:53:12.183Z,55.78
2016-05-19T06:54:11.983Z,56.16
2016-05-19T06:55:11.985Z,54.44
2016-05-19T06:56:12.019Z,53.7
2016-05-19T06:57:12.022Z,52.74
2016-05-19T06:58:12.072Z,52.26
2016-05-19T06:59:12.073Z,52.36
2016-05-19T07:00:12.092Z,52.86
2016-05-19T07:01:11.954Z,52.57
2016-05-19T07:02:12.129Z,53.82
2016-05-19T07:03:12.146Z,53.05
2016-05-19T07:04:12.165Z,52.86
2016-05-19T07:05:12.199Z,52.89
2016-05-19T07:06:12.218Z,52.89
2016-05-19T07:07:12.235Z,52.79
2016-05-19T07:08:12.113Z,52.89
2016-05-19T07:09:12.288Z,52.98
2016-05-19T07:10:12.306Z,52.6
2016-05-19T07:11:12.324Z,53.46
2016-05-19T07:12:12.187Z,53.75
2016-05-19T07:13:12.361Z,52.4
2016-05-19T07:14:12.223Z,52.79
2016-05-19T07:15:12.414Z,53.56
2016-05-19T07:16:12.431Z,52.5
2016-05-19T07:17:12.450Z,52.89
2016-05-19T07:18:12.468Z,53.08
2016-05-19T07:19:12.487Z,52.89
2016-05-19T07:20:12.505Z,53.66
2016-05-19T07:21:12.383Z,54.42
2016-05-19T07:22:12.401Z,54.52
2016-05-19T07:23:12.606Z,54.3
2016-05-19T07:24:12.594Z,54.49
2016-05-19T07:25:12.628Z,55.16
2016-05-19T07:26:12.631Z,55.83
2016-05-19T07:27:12.649Z,54.94
2016-05-19T07:28:12.511Z,54.88
2016-05-19T07:29:12.748Z,53.15
2016-05-19T07:30:12.564Z,52.57
2016-05-19T07:31:12.769Z,52.98
2016-05-19T07:32:12.803Z,53.56
2016-05-19T07:33:12.633Z,53.94
2016-05-19T07:34:12.871Z,54.71
2016-05-19T07:35:12.874Z,55.38
2016-05-19T07:36:12.892Z,55.55
2016-05-19T07:37:12.894Z,55.93
2016-05-19T07:38:13.038Z,56.31
2016-05-19T07:39:12.931Z,56.79
2016-05-19T07:40:12.934Z,57.46
2016-05-19T07:41:12.952Z,57.43
2016-05-19T07:42:12.970Z,57.15
2016-05-19T07:43:12.989Z,56.89
2016-05-19T07:44:13.023Z,55.74
2016-05-19T07:45:13.040Z,56.41
2016-05-19T07:46:13.076Z,54.68
2016-05-19T07:47:13.078Z,55.77
2016-05-19T07:48:13.095Z,54.23
2016-05-19T07:49:13.131Z,53.46
2016-05-19T07:50:13.134Z,54.83
2016-05-19T07:51:13.167Z,54.45
2016-05-19T07:52:13.185Z,53.39
2016-05-19T07:53:13.094Z,52.24
2016-05-19T07:54:13.222Z,51.47
2016-05-19T07:55:13.239Z,52.08
2016-05-19T07:56:13.274Z,51.79
2016-05-19T07:57:13.292Z,50.44
2016-05-19T07:58:13.326Z,52.55
2016-05-19T07:59:13.344Z,53.8
2016-05-19T08:00:13.378Z,53.78
2016-05-19T08:01:13.381Z,54.45
2016-05-19T08:02:13.399Z,53.58
2016-05-19T08:03:13.433Z,53.39
2016-05-19T08:04:13.466Z,53.49
2016-05-19T08:05:13.485Z,53.87
2016-05-19T08:06:13.488Z,53.2
2016-05-19T08:07:13.507Z,52.62
2016-05-19T08:08:13.525Z,51.47
2016-05-19T08:09:13.560Z,53.87
2016-05-19T08:10:13.577Z,55.41
2016-05-19T08:11:13.596Z,56.24
2016-05-19T08:12:13.613Z,56.92
2016-05-19T08:13:13.632Z,57.37
2016-05-19T08:14:13.651Z,58.04
2016-05-19T08:15:13.668Z,57.95
2016-05-19T08:16:13.734Z,57.95
2016-05-19T08:17:13.737Z,57.56
2016-05-19T08:18:13.740Z,58.91
2016-05-19T08:19:13.757Z,58.81
2016-05-19T08:20:13.792Z,58.52
2016-05-19T08:21:13.700Z,58.42
2016-05-19T08:22:13.859Z,56.31
2016-05-19T08:23:13.784Z,56.92
2016-05-19T08:24:13.927Z,56.73
2016-05-19T08:25:13.945Z,55.47
2016-05-19T08:26:13.963Z,55.38
2016-05-19T08:27:13.950Z,56.15
2016-05-19T08:28:13.953Z,55.77
2016-05-19T08:29:13.972Z,55.67
2016-05-19T08:30:13.991Z,56.34
2016-05-19T08:31:14.024Z,56.53
2016-05-19T08:32:13.902Z,55.67
2016-05-19T08:33:14.061Z,56.15
2016-05-19T08:34:14.094Z,56.24
2016-05-19T08:35:14.098Z,57.11
2016-05-19T08:36:14.116Z,57.11
2016-05-19T08:37:14.135Z,57.85
2016-05-19T08:38:14.168Z,59.19
2016-05-19T08:39:14.218Z,59
2016-05-19T08:40:14.204Z,59.48
2016-05-19T08:41:14.082Z,58.14
2016-05-19T08:42:14.241Z,58.42
2016-05-19T08:43:14.276Z,59.09
2016-05-19T08:44:14.294Z,58.81
2016-05-19T08:45:14.312Z,59.48
2016-05-19T08:46:14.346Z,59.09
2016-05-19T08:47:14.364Z,58.71
2016-05-19T08:48:14.398Z,57.56
2016-05-19T08:49:14.400Z,56.7
2016-05-19T08:50:14.262Z,56.41
2016-05-19T08:51:14.437Z,55.96
2016-05-19T08:52:14.456Z,56.05
2016-05-19T08:53:14.817Z,56.24
2016-05-19T08:54:14.773Z,55.29
2016-05-19T08:55:14.620Z,54.71
2016-05-19T08:56:14.545Z,55.29
2016-05-19T08:57:14.563Z,56.44
2016-05-19T08:58:14.441Z,57.11
2016-05-19T08:59:14.599Z,56.34
2016-05-19T09:00:14.633Z,55.47
2016-05-19T09:01:14.652Z,54.8
2016-05-19T09:02:14.655Z,55.38
2016-05-19T09:03:14.689Z,57.33
2016-05-19T09:04:14.722Z,58.36
2016-05-19T09:05:14.741Z,57.21
2016-05-19T09:06:14.588Z,57.3
2016-05-19T09:07:14.777Z,57.21
2016-05-19T09:08:14.826Z,57.88
2016-05-19T09:09:14.813Z,58.07
2016-05-19T09:10:14.848Z,57.3
2016-05-19T09:11:14.710Z,57.88
2016-05-19T09:12:14.899Z,58.07
2016-05-19T09:13:14.903Z,59.22
2016-05-19T09:14:14.984Z,59.09
2016-05-19T09:15:14.986Z,58.81
2016-05-19T09:16:14.990Z,59.29
2016-05-19T09:17:15.023Z,59
2016-05-19T09:18:14.854Z,58.71
2016-05-19T09:19:15.090Z,59.67
2016-05-19T09:20:15.094Z,60.15
2016-05-19T09:21:15.112Z,59.77
2016-05-19T09:22:15.145Z,59.09
2016-05-19T09:23:14.992Z,57.65
2016-05-19T09:24:15.307Z,56.51
2016-05-19T09:25:15.154Z,56.44
2016-05-19T09:26:15.172Z,55.96
2016-05-19T09:27:15.190Z,55.86
2016-05-19T09:28:15.208Z,54.71
2016-05-19T09:29:15.242Z,55.67
2016-05-19T09:30:15.261Z,56.46
2016-05-19T09:31:15.280Z,57.59
2016-05-19T09:32:15.314Z,56.63
2016-05-19T09:33:15.331Z,56.92
2016-05-19T09:34:15.350Z,57.5
2016-05-19T09:35:15.383Z,57.78
2016-05-19T09:36:15.246Z,57.11
2016-05-19T09:37:15.420Z,56.73
2016-05-19T09:38:15.439Z,58.45
2016-05-19T09:39:15.302Z,58.36
2016-05-19T09:40:15.475Z,57.08
2016-05-19T09:41:15.510Z,56.82
2016-05-19T09:42:15.512Z,56.44
2016-05-19T09:43:15.374Z,56.82
2016-05-19T09:44:15.565Z,56.73
2016-05-19T09:45:15.426Z,57.3
2016-05-19T09:46:15.601Z,57.59
2016-05-19T09:47:15.619Z,58.26
2016-05-19T09:48:15.654Z,58.45
2016-05-19T09:49:15.671Z,57.88
2016-05-19T09:50:15.674Z,57.01
2016-05-19T09:51:15.709Z,56.73
2016-05-19T09:52:15.726Z,57.4
2016-05-19T09:53:15.932Z,57.4
2016-05-19T09:54:15.779Z,58.45
2016-05-19T09:55:15.797Z,58.26
2016-05-19T09:56:15.815Z,57.4
2016-05-19T09:57:15.834Z,57.11
2016-05-19T09:58:15.852Z,57.11
2016-05-19T09:59:15.886Z,57.4
2016-05-19T10:00:15.811Z,57.59
2016-05-19T10:01:15.797Z,57.59
2016-05-19T10:02:15.956Z,57.78
2016-05-19T10:03:15.959Z,56.82
2016-05-19T10:04:15.994Z,56.53
2016-05-19T10:05:15.996Z,56.24
2016-05-19T10:06:16.077Z,56.37
2016-05-19T10:07:16.080Z,56.56
2016-05-19T10:08:16.114Z,55.6
2016-05-19T10:09:16.522Z,55.12
2016-05-19T10:10:16.150Z,53.78
2016-05-19T10:11:16.027Z,54.35
2016-05-19T10:12:16.186Z,54.83
2016-05-19T10:13:16.033Z,54.74
2016-05-19T10:14:16.224Z,56.11
2016-05-19T10:15:16.226Z,55.91
2016-05-19T10:16:16.244Z,55.22
2016-05-19T10:17:16.263Z,55.69
2016-05-19T10:18:16.296Z,55.69
2016-05-19T10:19:16.330Z,55.79
2016-05-19T10:20:16.318Z,55.51
2016-05-19T10:21:16.352Z,55.32
2016-05-19T10:22:16.370Z,54.45
2016-05-19T10:23:16.388Z,54.77
2016-05-19T10:24:16.265Z,55.73
2016-05-19T10:25:16.440Z,56.46
2016-05-19T10:26:16.459Z,56.85
2016-05-19T10:27:16.477Z,56.27
2016-05-19T10:28:16.542Z,55.89
2016-05-19T10:29:16.529Z,55.89
2016-05-19T10:30:16.548Z,55.82
2016-05-19T10:31:16.409Z,54.86
2016-05-19T10:32:16.600Z,55.44
2016-05-19T10:33:16.618Z,55.05
2016-05-19T10:34:16.653Z,53.42
2016-05-19T10:35:16.639Z,53.74
2016-05-19T10:36:16.689Z,53.74
2016-05-19T10:37:16.707Z,54.31
2016-05-19T10:38:16.725Z,54.6
2016-05-19T10:39:16.744Z,54.99
2016-05-19T10:40:16.762Z,53.23
2016-05-19T10:41:16.796Z,52.29
2016-05-19T10:42:16.814Z,52.48
2016-05-19T10:43:16.817Z,52
2016-05-19T10:44:16.835Z,52.61
2016-05-19T10:45:16.885Z,52.42
2016-05-19T10:46:16.888Z,50.1
2016-05-19T10:47:16.922Z,51.57
2016-05-19T10:48:16.940Z,52.32
2016-05-19T10:49:16.958Z,52.03
2016-05-19T10:50:16.992Z,51.45
2016-05-19T10:51:16.838Z,49.91
2016-05-19T10:52:17.029Z,50.68
2016-05-19T10:53:17.422Z,51.26
2016-05-19T10:54:17.112Z,51.45
2016-05-19T10:55:17.099Z,51.84
2016-05-19T10:56:17.134Z,51.45
2016-05-19T10:57:17.136Z,51.93
2016-05-19T10:58:17.200Z,51.35
2016-05-19T10:59:17.188Z,50.42
2016-05-19T11:00:17.207Z,49.27
2016-05-19T11:01:17.256Z,50.23
2016-05-19T11:02:17.290Z,50.81
2016-05-19T11:03:17.323Z,51.38
2016-05-19T11:04:17.342Z,51.19
2016-05-19T11:05:17.360Z,49.84
2016-05-19T11:06:17.378Z,49.36
2016-05-19T11:07:17.381Z,49.27
2016-05-19T11:08:17.416Z,48.49
2016-05-19T11:09:17.278Z,48.02
2016-05-19T11:10:17.436Z,47.34
2016-05-19T11:11:17.438Z,48.52
2016-05-19T11:12:17.472Z,48.43
2016-05-19T11:13:17.508Z,49.27
2016-05-19T11:14:17.525Z,49.46
2016-05-19T11:15:17.544Z,48.88
2016-05-19T11:16:17.577Z,48.59
2016-05-19T11:17:17.440Z,49.17
2016-05-19T11:18:17.613Z,49.65
2016-05-19T11:19:17.476Z,49.46
2016-05-19T11:20:17.666Z,49.91
2016-05-19T11:21:17.685Z,50.1
2016-05-19T11:22:17.718Z,49.72
2016-05-19T11:23:17.721Z,49.24
2016-05-19T11:24:18.037Z,49.27
2016-05-19T11:25:17.758Z,48.11
2016-05-19T11:26:17.807Z,48.4
2016-05-19T11:27:17.810Z,49.27
2016-05-19T11:28:17.845Z,49.46
2016-05-19T11:29:17.863Z,49.36
2016-05-19T11:30:17.896Z,50.1
2016-05-19T11:31:17.899Z,50.68
2016-05-19T11:32:17.917Z,51.26
2016-05-19T11:33:17.951Z,50.76
2016-05-19T11:34:17.969Z,50.3
2016-05-19T11:35:17.988Z,50.2
2016-05-19T11:36:18.006Z,49.65
2016-05-19T11:37:18.040Z,49.36
2016-05-19T11:38:18.058Z,49.84
2016-05-19T11:39:18.092Z,50.32
2016-05-19T11:40:18.110Z,49.94
2016-05-19T11:41:18.129Z,48.79
2016-05-19T11:42:18.164Z,49.07
2016-05-19T11:43:18.181Z,48.59
2016-05-19T11:44:18.230Z,48.59
2016-05-19T11:45:18.233Z,48.71
2016-05-19T11:46:18.252Z,48.4
2016-05-19T11:47:18.324Z,48.69
2016-05-19T11:48:18.351Z,48.59
2016-05-19T11:49:18.472Z,48.4
2016-05-19T11:50:18.500Z,48.88
2016-05-19T11:51:18.573Z,49.27
2016-05-19T11:52:18.640Z,50.23
2016-05-19T11:53:18.673Z,49.53
2016-05-19T11:54:19.143Z,49.46
2016-05-19T11:55:18.707Z,49.94
2016-05-19T11:56:18.739Z,50.04
2016-05-19T11:57:18.764Z,51.19
2016-05-19T11:58:18.788Z,50.1
2016-05-19T11:59:18.811Z,49.43
2016-05-19T12:00:18.867Z,49.43
2016-05-19T12:01:18.735Z,49.53
2016-05-19T12:02:18.896Z,49.94
2016-05-19T12:03:18.931Z,50.13
2016-05-19T12:04:18.794Z,49.72
2016-05-19T12:05:18.987Z,49.74
2016-05-19T12:06:19.008Z,48.76
2016-05-19T12:07:19.026Z,50.23
2016-05-19T12:08:19.046Z,49.05
2016-05-19T12:09:19.221Z,49.63
2016-05-19T12:10:19.099Z,50.3
2016-05-19T12:11:19.118Z,49.82
2016-05-19T12:12:19.137Z,50.13
2016-05-19T12:13:19.156Z,50.13
2016-05-19T12:14:19.174Z,49.55
2016-05-19T12:15:19.271Z,48.4
2016-05-19T12:16:19.072Z,48.4
2016-05-19T12:17:19.246Z,48.03
2016-05-19T12:18:19.280Z,47.46
2016-05-19T12:19:19.299Z,47.94
2016-05-19T12:20:19.332Z,48.33
2016-05-19T12:21:19.349Z,48.13
2016-05-19T12:22:19.352Z,48.13
2016-05-19T12:23:19.402Z,48.52
2016-05-19T12:24:19.562Z,48.43
2016-05-19T12:25:19.439Z,48.43
2016-05-19T12:26:19.457Z,48.61
2016-05-19T12:27:19.476Z,48.23
2016-05-19T12:28:19.510Z,48.33
2016-05-19T12:29:19.512Z,48.71
2016-05-19T12:30:19.546Z,48.13
2016-05-19T12:31:19.581Z,47.56
2016-05-19T12:32:19.599Z,49.29
2016-05-19T12:33:19.601Z,49.29
2016-05-19T12:34:19.651Z,47.94
2016-05-19T12:35:19.653Z,48.81
2016-05-19T12:36:19.672Z,48.43
2016-05-19T12:37:19.706Z,49.19
2016-05-19T12:38:19.709Z,50.04
2016-05-19T12:39:19.961Z,50.04
2016-05-19T12:40:19.761Z,50.13
2016-05-19T12:41:19.842Z,49.46
2016-05-19T12:42:19.876Z,49.84
2016-05-19T12:43:19.878Z,49.36
2016-05-19T12:44:19.897Z,49.17
2016-05-19T12:45:19.946Z,49.27
2016-05-19T12:46:19.933Z,49.36
2016-05-19T12:47:19.936Z,48.69
2016-05-19T12:48:19.954Z,49.58
2016-05-19T12:49:19.972Z,48.9
2016-05-19T12:50:19.991Z,48.03
2016-05-19T12:51:20.025Z,47.08
2016-05-19T12:52:20.043Z,46.59
2016-05-19T12:53:20.061Z,45.84
2016-05-19T12:54:20.096Z,45.36
2016-05-19T12:55:20.113Z,45.56
2016-05-19T12:56:20.148Z,45.36